createdAt,value
2018-01-31T01:52:20.375Z,8.82
2018-01-31T01:52:21.228Z,8.64
2018-01-31T01:53:19.815Z,8.64
2018-01-31T01:54:19.792Z,8.58
2018-01-31T01:55:19.786Z,8.47
2018-01-31T01:56:19.766Z,8.55
2018-01-31T01:57:19.753Z,8.52
2018-01-31T01:58:19.740Z,8.50
2018-01-31T01:59:19.730Z,8.54
2018-01-31T02:00:19.721Z,8.50
2018-01-31T02:01:19.709Z,8.39
2018-01-31T02:02:19.688Z,8.39
2018-01-31T02:03:19.676Z,8.43
2018-01-31T02:04:19.667Z,8.31
2018-01-31T02:05:19.650Z,8.29
2018-01-31T02:06:19.637Z,8.37
2018-01-31T02:07:19.628Z,8.32
2018-01-31T02:08:19.617Z,8.25
2018-01-31T02:09:19.603Z,8.31
2018-01-31T02:10:19.585Z,8.29
2018-01-31T02:11:19.579Z,8.28
2018-01-31T02:12:19.565Z,8.28
2018-01-31T02:13:19.546Z,8.24
2018-01-31T02:14:19.538Z,8.13
2018-01-31T02:15:19.522Z,8.24
2018-01-31T02:16:19.505Z,8.07
2018-01-31T02:17:19.498Z,8.10
2018-01-31T02:18:19.480Z,8.09
2018-01-31T02:19:19.466Z,8.07
2018-01-31T02:20:19.453Z,7.99
2018-01-31T02:21:19.441Z,7.92
2018-01-31T02:22:19.429Z,7.99
2018-01-31T02:23:19.415Z,7.92
2018-01-31T02:24:19.409Z,7.91
2018-01-31T02:25:19.389Z,7.86
2018-01-31T02:26:19.381Z,7.74
2018-01-31T02:27:19.361Z,7.76
2018-01-31T02:28:19.352Z,7.67
2018-01-31T02:29:19.334Z,7.54
2018-01-31T02:30:19.327Z,7.60
2018-01-31T02:31:19.310Z,7.62
2018-01-31T02:32:19.294Z,7.70
2018-01-31T02:33:19.286Z,7.58
2018-01-31T02:34:19.280Z,7.50
2018-01-31T02:35:19.254Z,7.55
2018-01-31T02:36:19.241Z,7.48
2018-01-31T02:37:19.233Z,7.48
2018-01-31T02:38:19.215Z,7.55
2018-01-31T02:39:19.206Z,7.60
2018-01-31T02:40:19.192Z,7.55
2018-01-31T02:41:19.173Z,7.47
2018-01-31T02:42:19.168Z,7.39
2018-01-31T02:43:19.152Z,7.47
2018-01-31T02:44:19.132Z,7.39
2018-01-31T02:45:19.121Z,7.36
2018-01-31T02:46:19.107Z,7.32
2018-01-31T02:47:19.094Z,7.32
2018-01-31T02:48:19.079Z,7.23
2018-01-31T02:49:19.065Z,7.19
2018-01-31T02:50:19.051Z,7.29
2018-01-31T02:51:19.041Z,7.27
2018-01-31T02:52:19.024Z,7.24
2018-01-31T02:53:19.017Z,7.26
2018-01-31T02:54:18.997Z,7.23
2018-01-31T02:55:18.986Z,7.19
2018-01-31T02:56:18.970Z,7.24
2018-01-31T02:57:18.962Z,7.11
2018-01-31T02:58:18.949Z,7.14
2018-01-31T02:59:18.932Z,7.12
2018-01-31T03:00:18.923Z,7.23
2018-01-31T03:01:18.902Z,7.19
2018-01-31T03:02:18.893Z,7.12
2018-01-31T03:03:18.872Z,7.05
2018-01-31T03:04:18.858Z,6.96
2018-01-31T03:05:18.846Z,7.00
2018-01-31T03:06:18.832Z,6.93
2018-01-31T03:07:18.817Z,7.01
2018-01-31T03:08:18.805Z,7.05
2018-01-31T03:09:18.788Z,7.07
2018-01-31T03:10:18.779Z,7.05
2018-01-31T03:11:18.763Z,6.97
2018-01-31T03:12:18.748Z,6.96
2018-01-31T03:13:18.733Z,6.94
2018-01-31T03:14:18.723Z,6.93
2018-01-31T03:15:18.714Z,7.04
2018-01-31T03:16:18.693Z,6.97
2018-01-31T03:17:18.684Z,6.89
2018-01-31T03:18:18.664Z,6.83
2018-01-31T03:19:18.656Z,6.82
2018-01-31T03:20:18.639Z,6.75
2018-01-31T03:21:18.626Z,6.86
2018-01-31T03:22:18.609Z,6.89
2018-01-31T03:23:18.598Z,6.89
2018-01-31T03:24:18.580Z,6.91
2018-01-31T03:25:18.568Z,6.90
2018-01-31T03:26:18.566Z,6.91
2018-01-31T03:27:18.541Z,6.83
2018-01-31T03:28:18.526Z,6.81
2018-01-31T03:29:18.513Z,6.89
2018-01-31T03:30:18.498Z,6.89
2018-01-31T03:31:18.488Z,6.93
2018-01-31T03:32:18.468Z,7.00
2018-01-31T03:33:18.453Z,6.91
2018-01-31T03:34:18.443Z,6.89
2018-01-31T03:35:18.425Z,6.90
2018-01-31T03:36:18.416Z,6.90
2018-01-31T03:37:18.398Z,6.94
2018-01-31T03:38:18.381Z,6.81
2018-01-31T03:39:18.369Z,6.87
2018-01-31T03:40:18.360Z,6.87
2018-01-31T03:41:18.339Z,6.93
2018-01-31T03:42:18.325Z,6.87
2018-01-31T03:43:18.317Z,6.87
2018-01-31T03:44:18.304Z,6.93
2018-01-31T03:45:18.283Z,6.87
2018-01-31T03:46:18.272Z,6.94
2018-01-31T03:47:18.261Z,6.97
2018-01-31T03:48:18.240Z,6.87
2018-01-31T03:49:18.250Z,6.96
2018-01-31T03:50:18.217Z,6.94
2018-01-31T03:51:18.198Z,6.81
2018-01-31T03:52:18.180Z,6.93
2018-01-31T03:53:18.174Z,6.91
2018-01-31T03:54:18.154Z,6.96
2018-01-31T03:55:18.139Z,6.90
2018-01-31T03:56:18.129Z,6.94
2018-01-31T03:57:18.111Z,6.90
2018-01-31T03:58:18.102Z,6.99
2018-01-31T03:59:18.083Z,6.89
2018-01-31T04:00:18.067Z,6.96
2018-01-31T04:01:18.059Z,6.90
2018-01-31T04:02:18.042Z,6.89
2018-01-31T04:03:18.027Z,6.93
2018-01-31T04:04:18.018Z,7.04
2018-01-31T04:05:18.004Z,6.89
2018-01-31T04:06:17.987Z,6.89
2018-01-31T04:07:17.967Z,6.91
2018-01-31T04:08:17.952Z,6.83
2018-01-31T04:09:17.938Z,6.83
2018-01-31T04:10:17.923Z,6.65
2018-01-31T04:11:17.910Z,6.78
2018-01-31T04:12:17.894Z,6.69
2018-01-31T04:13:17.888Z,6.69
2018-01-31T04:14:17.869Z,6.64
2018-01-31T04:15:17.858Z,6.63
2018-01-31T04:16:17.838Z,6.65
2018-01-31T04:17:17.823Z,6.65
2018-01-31T04:18:17.811Z,6.64
2018-01-31T04:19:17.796Z,6.63
2018-01-31T04:20:17.784Z,6.65
2018-01-31T04:21:17.765Z,6.64
2018-01-31T04:22:17.758Z,6.72
2018-01-31T04:23:17.742Z,6.69
2018-01-31T04:24:17.729Z,6.68
2018-01-31T04:25:17.709Z,6.68
2018-01-31T04:26:17.694Z,6.63
2018-01-31T04:27:17.682Z,6.69
2018-01-31T04:28:17.664Z,6.68
2018-01-31T04:29:17.651Z,6.69
2018-01-31T04:30:17.636Z,6.72
2018-01-31T04:31:17.631Z,6.76
2018-01-31T04:32:17.608Z,6.73
2018-01-31T04:33:17.598Z,6.65
2018-01-31T04:34:17.580Z,6.68
2018-01-31T04:35:17.563Z,6.63
2018-01-31T04:36:17.549Z,6.64
2018-01-31T04:37:17.540Z,6.65
2018-01-31T04:38:17.522Z,6.72
2018-01-31T04:39:17.508Z,6.69
2018-01-31T04:40:17.493Z,6.63
2018-01-31T04:41:17.481Z,6.71
2018-01-31T04:42:17.469Z,6.61
2018-01-31T04:43:17.454Z,6.63
2018-01-31T04:44:17.432Z,6.61
2018-01-31T04:45:17.419Z,6.51
2018-01-31T04:46:17.403Z,6.54
2018-01-31T04:47:17.396Z,6.43
2018-01-31T04:48:17.373Z,6.57
2018-01-31T04:49:17.360Z,6.72
2018-01-31T04:50:17.346Z,6.65
2018-01-31T04:51:17.331Z,6.64
2018-01-31T04:52:17.316Z,6.68
2018-01-31T04:53:17.305Z,6.72
2018-01-31T04:54:17.287Z,6.65
2018-01-31T04:55:17.280Z,6.68
2018-01-31T04:56:17.257Z,6.57
2018-01-31T04:57:17.250Z,6.57
2018-01-31T04:58:17.232Z,6.54
2018-01-31T04:59:17.214Z,6.45
2018-01-31T05:00:17.208Z,6.45
2018-01-31T05:01:17.185Z,6.45
2018-01-31T05:02:17.170Z,6.50
2018-01-31T05:03:17.162Z,6.40
2018-01-31T05:04:17.141Z,6.57
2018-01-31T05:05:17.124Z,6.54
2018-01-31T05:06:17.110Z,6.46
2018-01-31T05:07:17.097Z,6.42
2018-01-31T05:08:17.082Z,6.57
2018-01-31T05:09:17.066Z,6.45
2018-01-31T05:10:17.054Z,6.33
2018-01-31T05:11:17.041Z,6.40
2018-01-31T05:12:17.023Z,6.46
2018-01-31T05:13:17.007Z,6.38
2018-01-31T05:14:16.996Z,6.46
2018-01-31T05:15:16.986Z,6.54
2018-01-31T05:16:16.969Z,6.58
2018-01-31T05:17:16.950Z,6.45
2018-01-31T05:18:16.936Z,6.46
2018-01-31T05:19:16.928Z,6.46
2018-01-31T05:20:16.908Z,6.45
2018-01-31T05:21:16.896Z,6.42
2018-01-31T05:22:16.878Z,6.45
2018-01-31T05:23:16.864Z,6.53
2018-01-31T05:24:16.848Z,6.38
2018-01-31T05:25:16.842Z,6.60
2018-01-31T05:26:16.821Z,6.58
2018-01-31T05:27:16.802Z,6.46
2018-01-31T05:28:16.788Z,6.63
2018-01-31T05:29:16.780Z,6.58
2018-01-31T05:30:16.764Z,6.64
2018-01-31T05:31:16.744Z,6.63
2018-01-31T05:32:16.728Z,6.60
2018-01-31T05:33:16.713Z,6.73
2018-01-31T05:34:16.708Z,6.82
2018-01-31T05:35:16.686Z,6.75
2018-01-31T05:36:16.672Z,6.79
2018-01-31T05:37:16.656Z,6.72
2018-01-31T05:38:16.646Z,6.78
2018-01-31T05:39:16.633Z,6.71
2018-01-31T05:40:16.618Z,6.65
2018-01-31T05:41:16.600Z,6.75
2018-01-31T05:42:16.593Z,6.72
2018-01-31T05:43:16.576Z,6.64
2018-01-31T05:44:16.566Z,6.72
2018-01-31T05:45:16.543Z,6.63
2018-01-31T05:46:16.529Z,6.65
2018-01-31T05:47:16.520Z,6.61
2018-01-31T05:48:16.497Z,6.58
2018-01-31T05:49:16.489Z,6.65
2018-01-31T05:50:16.471Z,6.71
2018-01-31T05:51:16.459Z,6.69
2018-01-31T05:52:16.439Z,6.69
2018-01-31T05:53:16.426Z,6.76
2018-01-31T05:54:16.413Z,6.65
2018-01-31T05:55:16.396Z,6.71
2018-01-31T05:56:16.380Z,6.61
2018-01-31T05:57:16.413Z,6.63
2018-01-31T05:58:16.360Z,6.71
2018-01-31T05:59:16.344Z,6.65
2018-01-31T06:00:16.330Z,6.64
2018-01-31T06:01:16.315Z,6.64
2018-01-31T06:02:16.296Z,6.61
2018-01-31T06:03:16.287Z,6.71
2018-01-31T06:04:16.266Z,6.63
2018-01-31T06:05:16.249Z,6.58
2018-01-31T06:06:16.232Z,6.68
2018-01-31T06:07:16.221Z,6.65
2018-01-31T06:08:16.210Z,6.64
2018-01-31T06:09:16.190Z,6.63
2018-01-31T06:10:16.176Z,6.64
2018-01-31T06:11:16.165Z,6.68
2018-01-31T06:12:16.143Z,6.65
2018-01-31T06:13:16.128Z,6.61
2018-01-31T06:14:16.121Z,6.61
2018-01-31T06:15:16.102Z,6.68
2018-01-31T06:16:16.084Z,6.69
2018-01-31T06:17:16.077Z,6.65
2018-01-31T06:18:16.054Z,6.71
2018-01-31T06:19:16.040Z,6.64
2018-01-31T06:20:16.029Z,6.71
2018-01-31T06:21:16.010Z,6.61
2018-01-31T06:22:15.996Z,6.61
2018-01-31T06:23:15.989Z,6.58
2018-01-31T06:24:15.967Z,6.57
2018-01-31T06:25:15.955Z,6.65
2018-01-31T06:26:15.944Z,6.71
2018-01-31T06:27:15.922Z,6.71
2018-01-31T06:28:15.913Z,6.60
2018-01-31T06:29:15.893Z,6.61
2018-01-31T06:30:15.876Z,6.58
2018-01-31T06:31:15.862Z,6.63
2018-01-31T06:32:15.848Z,6.61
2018-01-31T06:33:15.841Z,6.61
2018-01-31T06:34:15.827Z,6.63
2018-01-31T06:35:15.806Z,6.57
2018-01-31T06:36:15.789Z,6.65
2018-01-31T06:37:15.775Z,6.61
2018-01-31T06:38:15.760Z,6.60
2018-01-31T06:39:15.745Z,6.65
2018-01-31T06:40:15.730Z,6.65
2018-01-31T06:41:15.715Z,6.68
2018-01-31T06:42:15.708Z,6.68
2018-01-31T06:43:15.690Z,6.72
2018-01-31T06:44:15.671Z,6.69
2018-01-31T06:45:15.658Z,6.68
2018-01-31T06:46:15.642Z,6.64
2018-01-31T06:47:15.632Z,6.65
2018-01-31T06:48:15.616Z,6.72
2018-01-31T06:49:15.600Z,6.61
2018-01-31T06:50:15.591Z,6.68
2018-01-31T06:51:15.568Z,6.68
2018-01-31T06:52:15.556Z,6.73
2018-01-31T06:53:15.537Z,6.61
2018-01-31T06:54:15.523Z,6.71
2018-01-31T06:55:15.515Z,6.71
2018-01-31T06:56:15.493Z,6.69
2018-01-31T06:57:15.486Z,6.64
2018-01-31T06:58:15.468Z,6.61
2018-01-31T06:59:15.452Z,6.69
2018-01-31T07:00:15.442Z,6.65
2018-01-31T07:01:15.435Z,6.69
2018-01-31T07:02:15.407Z,6.71
2018-01-31T07:03:15.394Z,6.86
2018-01-31T07:04:15.380Z,6.76
2018-01-31T07:05:15.370Z,6.83
2018-01-31T07:06:15.356Z,6.72
2018-01-31T07:07:15.335Z,6.87
2018-01-31T07:08:15.328Z,6.83
2018-01-31T07:09:15.311Z,6.89
2018-01-31T07:10:15.293Z,6.82
2018-01-31T07:11:15.283Z,6.76
2018-01-31T07:12:15.264Z,6.83
2018-01-31T07:13:15.248Z,6.91
2018-01-31T07:14:15.242Z,6.86
2018-01-31T07:15:15.225Z,6.96
2018-01-31T07:16:15.205Z,6.93
2018-01-31T07:17:15.197Z,7.01
2018-01-31T07:18:15.177Z,7.00
2018-01-31T07:19:15.161Z,7.05
2018-01-31T07:20:15.153Z,7.07
2018-01-31T07:21:15.132Z,7.11
2018-01-31T07:22:15.118Z,6.99
2018-01-31T07:23:15.109Z,7.05
2018-01-31T07:24:15.088Z,7.05
2018-01-31T07:25:15.078Z,7.07
2018-01-31T07:26:15.066Z,7.08
2018-01-31T07:27:15.049Z,7.18
2018-01-31T07:28:15.040Z,7.15
2018-01-31T07:29:15.019Z,7.23
2018-01-31T07:30:15.010Z,7.16
2018-01-31T07:31:14.992Z,7.16
2018-01-31T07:32:14.981Z,7.18
2018-01-31T07:33:14.958Z,7.19
2018-01-31T07:34:14.945Z,7.23
2018-01-31T07:35:14.938Z,7.19
2018-01-31T07:36:14.916Z,7.29
2018-01-31T07:37:14.910Z,7.27
2018-01-31T07:38:14.888Z,7.24
2018-01-31T07:39:14.877Z,7.45
2018-01-31T07:40:14.857Z,7.45
2018-01-31T07:41:14.847Z,7.60
2018-01-31T07:42:14.836Z,7.55
2018-01-31T07:43:14.817Z,7.44
2018-01-31T07:44:14.802Z,7.47
2018-01-31T07:45:14.785Z,7.44
2018-01-31T07:46:14.775Z,7.52
2018-01-31T07:47:14.756Z,7.47
2018-01-31T07:48:14.741Z,7.51
2018-01-31T07:49:14.733Z,7.44
2018-01-31T07:50:14.716Z,7.45
2018-01-31T07:51:14.700Z,7.48
2018-01-31T07:52:14.685Z,7.51
2018-01-31T07:53:14.671Z,7.44
2018-01-31T07:54:14.663Z,7.45
2018-01-31T07:55:14.642Z,7.48
2018-01-31T07:56:14.629Z,7.41
2018-01-31T07:57:14.615Z,7.50
2018-01-31T07:58:14.601Z,7.42
2018-01-31T07:59:14.585Z,7.44
2018-01-31T08:00:14.572Z,7.54
2018-01-31T08:01:14.557Z,7.60
2018-01-31T08:02:14.546Z,7.57
2018-01-31T08:03:14.532Z,7.67
2018-01-31T08:04:14.514Z,7.69
2018-01-31T08:05:14.500Z,7.73
2018-01-31T08:06:14.486Z,7.70
2018-01-31T08:07:14.474Z,7.71
2018-01-31T08:08:14.465Z,7.66
2018-01-31T08:09:14.450Z,7.91
2018-01-31T08:10:14.432Z,7.74
2018-01-31T08:11:14.416Z,7.76
2018-01-31T08:12:14.404Z,7.74
2018-01-31T08:13:14.390Z,7.76
2018-01-31T08:14:14.374Z,7.81
2018-01-31T08:15:14.362Z,7.77
2018-01-31T08:16:14.347Z,7.77
2018-01-31T08:17:14.331Z,7.77
2018-01-31T08:18:14.326Z,7.76
2018-01-31T08:19:14.305Z,7.94
2018-01-31T08:20:14.291Z,7.74
2018-01-31T08:21:14.282Z,7.76
2018-01-31T08:22:14.262Z,7.71
2018-01-31T08:23:14.249Z,7.63
2018-01-31T08:24:14.242Z,7.55
2018-01-31T08:25:14.221Z,7.73
2018-01-31T08:26:14.209Z,7.67
2018-01-31T08:27:14.195Z,7.67
2018-01-31T08:28:14.178Z,7.69
2018-01-31T08:29:14.171Z,7.74
2018-01-31T08:30:14.152Z,7.71
2018-01-31T08:31:14.137Z,7.70
2018-01-31T08:32:14.132Z,7.71
2018-01-31T08:33:14.121Z,7.73
2018-01-31T08:34:14.099Z,7.70
2018-01-31T08:35:14.086Z,7.76
2018-01-31T08:36:14.068Z,7.81
2018-01-31T08:37:14.054Z,7.81
2018-01-31T08:38:14.046Z,7.73
2018-01-31T08:39:14.028Z,8.02
2018-01-31T08:40:14.021Z,7.94
2018-01-31T08:41:14.000Z,8.00
2018-01-31T08:42:13.987Z,7.99
2018-01-31T08:43:13.973Z,8.00
2018-01-31T08:44:13.959Z,7.89
2018-01-31T08:45:13.947Z,7.95
2018-01-31T08:46:13.932Z,7.89
2018-01-31T08:47:13.919Z,7.95
2018-01-31T08:48:13.905Z,7.96
2018-01-31T08:49:13.890Z,7.95
2018-01-31T08:50:13.877Z,7.89
2018-01-31T08:51:13.868Z,7.88
2018-01-31T08:52:13.849Z,7.86
2018-01-31T08:53:13.835Z,7.86
2018-01-31T08:54:13.822Z,7.95
2018-01-31T08:55:13.809Z,7.96
2018-01-31T08:56:13.794Z,7.96
2018-01-31T08:57:13.780Z,8.04
2018-01-31T08:58:13.769Z,8.06
2018-01-31T08:59:13.760Z,7.96
2018-01-31T09:00:13.746Z,7.96
2018-01-31T09:01:13.733Z,8.00
2018-01-31T09:02:13.718Z,7.95
2018-01-31T09:03:13.703Z,7.96
2018-01-31T09:04:13.685Z,8.00
2018-01-31T09:05:13.681Z,8.02
2018-01-31T09:06:13.676Z,7.84
2018-01-31T09:07:13.661Z,7.95
2018-01-31T09:08:13.644Z,7.99
2018-01-31T09:09:13.623Z,8.12
2018-01-31T09:10:13.604Z,8.20
2018-01-31T09:11:13.592Z,8.27
2018-01-31T09:12:13.582Z,8.40
2018-01-31T09:13:13.569Z,8.40
2018-01-31T09:14:13.550Z,8.32
2018-01-31T09:15:13.542Z,8.31
2018-01-31T09:16:13.524Z,8.43
2018-01-31T09:17:13.515Z,8.45
2018-01-31T09:18:13.495Z,8.50
2018-01-31T09:19:13.491Z,8.60
2018-01-31T09:20:13.475Z,8.63
2018-01-31T09:21:13.457Z,8.75
2018-01-31T09:22:13.447Z,8.70
2018-01-31T09:23:13.433Z,8.71
2018-01-31T09:24:13.416Z,8.79
2018-01-31T09:25:13.402Z,8.82
2018-01-31T09:26:13.389Z,8.94
2018-01-31T09:27:13.378Z,8.96
2018-01-31T09:28:13.364Z,9.03
2018-01-31T09:29:13.406Z,9.08
2018-01-31T09:30:13.342Z,9.31
2018-01-31T09:31:13.322Z,9.38
2018-01-31T09:32:13.314Z,9.49
2018-01-31T09:33:13.301Z,9.55
2018-01-31T09:34:13.293Z,9.56
2018-01-31T09:35:13.277Z,9.81
2018-01-31T09:36:13.257Z,9.80
2018-01-31T09:37:13.249Z,9.98
2018-01-31T09:38:13.235Z,10.07
2018-01-31T09:39:13.220Z,10.07
2018-01-31T09:40:13.207Z,10.14
2018-01-31T09:41:13.198Z,10.14
2018-01-31T09:42:13.183Z,10.18
2018-01-31T09:43:13.172Z,10.26
2018-01-31T09:44:13.157Z,10.31
2018-01-31T09:45:13.144Z,10.35
2018-01-31T09:46:13.133Z,10.34
2018-01-31T09:47:13.126Z,10.36
2018-01-31T09:48:13.109Z,10.42
2018-01-31T09:49:13.095Z,10.38
2018-01-31T09:50:13.091Z,10.39
2018-01-31T09:51:13.070Z,10.39
2018-01-31T09:52:13.057Z,10.43
2018-01-31T09:53:13.046Z,10.52
2018-01-31T09:54:13.039Z,10.39
2018-01-31T09:55:13.023Z,10.36
2018-01-31T09:56:13.010Z,10.38
2018-01-31T09:57:13.014Z,10.43
2018-01-31T09:58:12.987Z,10.38
2018-01-31T09:59:12.984Z,10.42
2018-01-31T10:00:12.968Z,10.47
2018-01-31T10:01:12.951Z,10.46
2018-01-31T10:02:12.939Z,10.46
2018-01-31T10:03:12.935Z,10.42
2018-01-31T10:04:12.916Z,10.36
2018-01-31T10:05:12.909Z,10.42
2018-01-31T10:06:12.894Z,10.38
2018-01-31T10:07:12.886Z,10.35
2018-01-31T10:08:12.871Z,10.24
2018-01-31T10:09:12.865Z,10.28
2018-01-31T10:10:12.849Z,10.31
2018-01-31T10:11:12.838Z,10.28
2018-01-31T10:12:12.824Z,10.28
2018-01-31T10:13:12.814Z,10.36
2018-01-31T10:14:12.805Z,10.14
2018-01-31T10:15:12.793Z,10.26
2018-01-31T10:16:12.776Z,10.26
2018-01-31T10:17:12.771Z,10.32
2018-01-31T10:18:12.758Z,10.39
2018-01-31T10:19:12.745Z,10.38
2018-01-31T10:20:12.731Z,10.34
2018-01-31T10:21:12.717Z,10.39
2018-01-31T10:22:12.715Z,10.42
2018-01-31T10:23:12.694Z,10.57
2018-01-31T10:24:12.683Z,10.55
2018-01-31T10:25:12.678Z,10.62
2018-01-31T10:26:12.661Z,10.62
2018-01-31T10:27:12.647Z,10.46
2018-01-31T10:28:12.635Z,10.54
2018-01-31T10:29:12.627Z,10.58
2018-01-31T10:30:12.621Z,10.51
2018-01-31T10:31:12.607Z,10.51
2018-01-31T10:32:12.591Z,10.63
2018-01-31T10:33:12.580Z,10.69
2018-01-31T10:34:12.567Z,10.72
2018-01-31T10:35:12.558Z,10.80
2018-01-31T10:36:12.544Z,10.63
2018-01-31T10:37:12.531Z,10.86
2018-01-31T10:38:12.530Z,10.87
2018-01-31T10:39:12.516Z,10.98
2018-01-31T10:40:12.498Z,11.02
2018-01-31T10:41:12.490Z,11.02
2018-01-31T10:42:12.478Z,11.05
2018-01-31T10:43:12.465Z,11.01
2018-01-31T10:44:12.457Z,11.20
2018-01-31T10:45:12.444Z,11.27
2018-01-31T10:46:12.432Z,11.38
2018-01-31T10:47:12.428Z,11.36
2018-01-31T10:48:12.409Z,11.41
2018-01-31T10:49:12.397Z,11.35
2018-01-31T10:50:12.388Z,11.44
2018-01-31T10:51:12.382Z,11.49
2018-01-31T10:52:12.365Z,11.54
2018-01-31T10:53:12.358Z,11.64
2018-01-31T10:57:28.864Z,11.46
2018-01-31T10:58:12.308Z,11.48
2018-01-31T10:59:12.296Z,11.46
2018-01-31T11:00:12.286Z,11.46
2018-01-31T11:01:12.269Z,11.49
2018-01-31T11:02:12.259Z,11.48
2018-01-31T11:03:12.248Z,11.51
2018-01-31T11:04:12.236Z,11.64
2018-01-31T11:05:12.227Z,11.64
2018-01-31T11:06:12.214Z,11.64
2018-01-31T11:07:12.207Z,11.79
2018-01-31T11:08:12.199Z,11.82
2018-01-31T11:09:12.189Z,11.87
2018-01-31T11:10:12.172Z,11.84
2018-01-31T11:11:12.170Z,11.82
2018-01-31T11:12:12.157Z,11.85
2018-01-31T11:13:12.142Z,11.87
2018-01-31T11:14:12.141Z,11.79
2018-01-31T11:15:12.124Z,11.85
2018-01-31T11:16:12.112Z,11.84
2018-01-31T11:17:12.105Z,11.81
2018-01-31T11:18:12.090Z,11.90
2018-01-31T11:19:12.085Z,11.79
2018-01-31T11:20:12.074Z,11.82
2018-01-31T11:21:12.059Z,11.84
2018-01-31T11:22:12.054Z,11.87
2018-01-31T11:23:12.039Z,11.87
2018-01-31T11:24:12.033Z,11.84
2018-01-31T11:25:12.023Z,11.87
2018-01-31T11:26:12.010Z,11.87
2018-01-31T11:27:12.016Z,11.78
2018-01-31T11:28:11.992Z,11.77
2018-01-31T11:29:11.975Z,11.81
2018-01-31T11:30:11.967Z,11.81
2018-01-31T11:31:11.958Z,11.75
2018-01-31T11:32:11.946Z,11.74
2018-01-31T11:33:11.948Z,11.79
2018-01-31T11:34:11.933Z,11.88
2018-01-31T11:35:11.921Z,11.69
2018-01-31T11:36:11.913Z,11.88
2018-01-31T11:37:11.901Z,11.87
2018-01-31T11:38:11.888Z,11.90
2018-01-31T11:39:11.874Z,11.93
2018-01-31T11:40:11.865Z,12.07
2018-01-31T11:41:11.856Z,12.16
2018-01-31T11:42:11.844Z,12.26
2018-01-31T11:43:11.841Z,12.21
2018-01-31T11:44:11.834Z,12.16
2018-01-31T11:45:11.820Z,12.21
2018-01-31T11:46:11.807Z,12.26
2018-01-31T11:47:11.803Z,12.21
2018-01-31T11:48:11.784Z,12.26
2018-01-31T11:49:11.774Z,12.25
2018-01-31T11:50:11.765Z,12.31
2018-01-31T11:51:11.760Z,12.33
2018-01-31T11:52:11.750Z,12.38
2018-01-31T11:53:11.734Z,12.25
2018-01-31T11:54:11.724Z,12.29
2018-01-31T11:55:11.714Z,12.30
2018-01-31T11:56:11.707Z,12.26
2018-01-31T11:57:11.699Z,12.37
2018-01-31T11:58:11.685Z,12.38
2018-01-31T11:59:11.675Z,12.52
2018-01-31T12:00:11.671Z,12.56
2018-01-31T12:01:11.655Z,12.52
2018-01-31T12:02:11.645Z,12.55
2018-01-31T12:03:11.635Z,12.62
2018-01-31T12:04:11.625Z,12.61
2018-01-31T12:05:11.616Z,12.54
2018-01-31T12:06:11.608Z,12.43
2018-01-31T12:07:11.594Z,12.38
2018-01-31T12:08:11.586Z,12.40
2018-01-31T12:09:11.576Z,12.46
2018-01-31T12:10:11.572Z,12.38
2018-01-31T12:11:11.562Z,12.40
2018-01-31T12:12:11.549Z,12.37
2018-01-31T12:13:11.541Z,12.46
2018-01-31T12:14:11.531Z,12.38
2018-01-31T12:15:11.522Z,12.29
2018-01-31T12:16:11.509Z,12.31
2018-01-31T12:17:11.503Z,12.25
2018-01-31T12:18:11.493Z,12.05
2018-01-31T12:19:11.481Z,12.11
2018-01-31T12:20:11.477Z,12.13
2018-01-31T12:21:11.462Z,12.12
2018-01-31T12:22:11.452Z,12.07
2018-01-31T12:23:11.443Z,12.07
2018-01-31T12:24:11.442Z,12.12
2018-01-31T12:25:11.424Z,12.07
2018-01-31T12:26:11.416Z,12.05
2018-01-31T12:27:11.404Z,12.05
2018-01-31T12:28:11.401Z,12.04
2018-01-31T12:29:11.391Z,12.07
2018-01-31T12:30:11.377Z,11.94
2018-01-31T12:31:11.365Z,11.97
2018-01-31T12:32:11.355Z,12.04
2018-01-31T12:33:11.345Z,12.03
2018-01-31T12:34:11.336Z,12.03
2018-01-31T12:35:11.328Z,12.05
2018-01-31T12:36:11.322Z,12.13
2018-01-31T12:37:11.307Z,12.04
2018-01-31T12:38:11.298Z,12.05
2018-01-31T12:39:11.287Z,12.21
2018-01-31T12:40:11.279Z,12.19
2018-01-31T12:41:11.273Z,12.16
2018-01-31T12:42:11.258Z,12.21
2018-01-31T12:43:11.247Z,12.23
2018-01-31T12:44:11.241Z,12.12
2018-01-31T12:45:11.234Z,12.15
2018-01-31T12:46:11.223Z,12.03
2018-01-31T12:47:11.210Z,12.00
2018-01-31T12:48:11.199Z,12.03
2018-01-31T12:49:11.198Z,11.85
2018-01-31T12:50:11.181Z,11.88
2018-01-31T12:51:11.170Z,11.88
2018-01-31T12:52:11.160Z,11.87
2018-01-31T12:53:11.155Z,11.88
2018-01-31T12:54:11.148Z,11.90
2018-01-31T12:55:11.131Z,11.87
2018-01-31T12:56:11.121Z,11.85
2018-01-31T12:57:11.112Z,11.85
2018-01-31T12:58:11.122Z,11.82
2018-01-31T12:59:11.099Z,11.84
2018-01-31T13:00:11.087Z,11.85
2018-01-31T13:01:11.074Z,11.79
2018-01-31T13:02:11.064Z,11.81
2018-01-31T13:03:11.058Z,11.87
2018-01-31T13:04:11.045Z,11.87
2018-01-31T13:05:11.040Z,11.88
2018-01-31T13:06:11.021Z,12.00
2018-01-31T13:07:11.012Z,12.01
2018-01-31T13:08:11.010Z,11.98
2018-01-31T13:09:11.044Z,11.98
2018-01-31T13:10:10.985Z,11.96
2018-01-31T13:11:10.979Z,11.82
2018-01-31T13:12:10.962Z,11.88
2018-01-31T13:13:10.963Z,11.90
2018-01-31T13:14:10.945Z,11.85
2018-01-31T13:15:10.936Z,11.77
2018-01-31T13:16:10.929Z,11.64
2018-01-31T13:17:10.915Z,11.66
2018-01-31T13:18:10.908Z,11.63
2018-01-31T13:19:10.903Z,11.57
2018-01-31T13:20:10.891Z,11.64
2018-01-31T13:21:10.873Z,11.72
2018-01-31T13:22:10.864Z,11.67
2018-01-31T13:23:10.852Z,11.70
2018-01-31T13:24:10.840Z,11.74
2018-01-31T13:25:10.837Z,11.85
2018-01-31T13:26:10.826Z,11.81
2018-01-31T13:27:10.819Z,11.72
2018-01-31T13:28:10.806Z,11.74
2018-01-31T13:29:10.796Z,11.79
2018-01-31T13:30:10.788Z,11.70
2018-01-31T13:31:10.772Z,11.78
2018-01-31T13:32:10.761Z,11.78
2018-01-31T13:33:10.751Z,11.77
2018-01-31T13:34:10.745Z,11.75
2018-01-31T13:35:10.731Z,11.72
2018-01-31T13:36:10.720Z,11.66
2018-01-31T13:37:10.712Z,11.64
2018-01-31T13:38:10.701Z,11.62
2018-01-31T13:39:10.691Z,11.64
2018-01-31T13:40:10.686Z,11.60
2018-01-31T13:41:10.674Z,11.63
2018-01-31T13:42:10.665Z,11.53
2018-01-31T13:43:10.653Z,11.57
2018-01-31T13:44:10.638Z,11.48
2018-01-31T13:45:10.630Z,11.56
2018-01-31T13:46:10.618Z,11.60
2018-01-31T13:47:10.614Z,11.59
2018-01-31T13:48:10.602Z,11.60
2018-01-31T13:49:10.593Z,11.54
2018-01-31T13:50:10.580Z,11.60
2018-01-31T13:51:10.566Z,11.62
2018-01-31T13:52:10.561Z,11.45
2018-01-31T13:53:10.548Z,11.57
2018-01-31T13:54:10.536Z,11.48
2018-01-31T13:55:10.531Z,11.44
2018-01-31T13:56:10.517Z,11.45
2018-01-31T13:57:10.510Z,11.49
2018-01-31T13:58:10.495Z,11.48
2018-01-31T13:59:10.484Z,11.26
2018-01-31T14:00:10.478Z,11.28
2018-01-31T14:01:10.464Z,11.31
2018-01-31T14:02:10.460Z,11.35
2018-01-31T14:03:10.444Z,11.39
2018-01-31T14:04:10.431Z,11.27
2018-01-31T14:05:10.428Z,11.31
2018-01-31T14:06:10.413Z,11.33
2018-01-31T14:07:10.409Z,11.24
2018-01-31T14:08:10.396Z,11.24
2018-01-31T14:09:10.381Z,11.16
2018-01-31T14:10:10.379Z,11.19
2018-01-31T14:11:10.359Z,11.09
2018-01-31T14:12:10.353Z,11.06
2018-01-31T14:13:10.338Z,11.12
2018-01-31T14:14:10.328Z,11.06
2018-01-31T14:15:10.316Z,11.06
2018-01-31T14:16:10.306Z,11.09
2018-01-31T14:17:10.295Z,10.99
2018-01-31T14:18:10.290Z,11.08
2018-01-31T14:19:10.273Z,11.13
2018-01-31T14:20:10.266Z,11.11
2018-01-31T14:21:10.255Z,11.11
2018-01-31T14:22:10.241Z,11.08
2018-01-31T14:23:10.232Z,11.01
2018-01-31T14:24:10.231Z,10.99
2018-01-31T14:25:10.217Z,10.84
2018-01-31T14:26:10.199Z,10.90
2018-01-31T14:27:10.188Z,10.95
2018-01-31T14:28:10.177Z,10.94
2018-01-31T14:29:10.166Z,10.95
2018-01-31T14:30:10.156Z,10.90
2018-01-31T14:31:10.145Z,10.88
2018-01-31T14:32:10.132Z,10.87
2018-01-31T14:33:10.122Z,10.86
2018-01-31T14:34:10.112Z,10.86
2018-01-31T14:35:10.103Z,10.84
2018-01-31T14:36:10.092Z,10.87
2018-01-31T14:37:10.080Z,10.93
2018-01-31T14:38:10.068Z,10.80
2018-01-31T14:39:10.055Z,10.80
2018-01-31T14:40:10.043Z,10.84
2018-01-31T14:41:10.034Z,10.78
2018-01-31T14:42:10.028Z,10.70
2018-01-31T14:43:10.015Z,10.72
2018-01-31T14:44:10.001Z,10.70
2018-01-31T14:45:09.991Z,10.63
2018-01-31T14:46:09.987Z,10.58
2018-01-31T14:47:09.970Z,10.72
2018-01-31T14:48:09.956Z,10.78
2018-01-31T14:49:09.948Z,10.72
2018-01-31T14:50:09.936Z,10.70
2018-01-31T14:51:09.923Z,10.65
2018-01-31T14:52:09.914Z,10.68
2018-01-31T14:53:09.902Z,10.72
2018-01-31T14:54:09.891Z,10.70
2018-01-31T14:55:09.881Z,10.75
2018-01-31T14:56:09.867Z,10.69
2018-01-31T14:57:09.864Z,10.70
2018-01-31T14:58:09.846Z,10.58
2018-01-31T14:59:09.836Z,10.65
2018-01-31T15:00:09.824Z,10.68
2018-01-31T15:01:09.812Z,10.63